Aviation Digital Data Service (ADDS)

Output produced by TAFs form (0719 UTC 29 August 2015)
found at http://aviationweather.gov/adds/tafs/
 
KVEL 290528Z 2906/3006 30003KT P6SM SKC 
     FM291400 VRB03KT P6SM SKC 
     FM292100 22007KT P6SM FEW110 
     FM300200 27005KT P6SM SKC